Terminal Aerodrome Forecast
Issued by NWS

Home | Current Version | Previous Version | Text Only | Print | Product List | Glossary On
Versions: 1 2 3 4 5 6 7 8 9 10 11 12 13 14 15 16 17 18 19 20 21 22 23 24 25 26 27 28 29
000
FTUS42 KMFL 142122 AAA
TAFOPF
TAF AMD
KOPF 142122Z 1421/1518 08010KT P6SM VCSH FEW030 BKN070
     FM150300 33005KT P6SM FEW010 SCT025 BKN035
     FM151600 25010KT P6SM VCSH SCT025 SCT050 BKN100=

USA.gov is the U.S. government's official web portal to all federal, state and local government web resources and services.